SWR1216 LSZH-ENGM
Flight info
| Callsign | SWR1216 |
|---|---|
| Flight time | N/A |
| Altitude | 34000 |
| Route | DEGES Z1 ETAGO DCT HAREM/N0449F350 DCT LOHRE DCT ELNAT/N0449F340 DCT DOSUR DCT PIPEX/N0448F350 M609 RIPAM |
| Aircraft | A321/M-SDE3FGHIRWY/LB1 |
Departure
| Time | 2026-04-26 09:02 |
|---|---|
| Airport | Zürich Airport (LSZH) |
Arrival
| Time | N/A |
|---|---|
| Airport | Oslo-Gardermoen International Airport (ENGM) |
| Time | Latitude | Longitude | Altitude | Speed | Heading |
|---|---|---|---|---|---|
| 2026-04-26 08:35 | 47.45444 | 8.55570 | 1408 ft | 0 kts | 186° |
| 2026-04-26 08:53 | 47.45460 | 8.55573 | 1406 ft | 4 kts | 191° |
| 2026-04-26 08:53 | 47.45486 | 8.55579 | 1407 ft | 4 kts | 166° |
| 2026-04-26 08:53 | 47.45507 | 8.55567 | 1412 ft | 4 kts | 144° |
| 2026-04-26 08:53 | 47.45522 | 8.55539 | 1410 ft | 4 kts | 104° |
| 2026-04-26 08:54 | 47.45525 | 8.55525 | 1413 ft | 1 kts | 96° |
| 2026-04-26 08:56 | 47.45523 | 8.55549 | 1408 ft | 5 kts | 96° |
| 2026-04-26 08:57 | 47.45515 | 8.55652 | 1410 ft | 16 kts | 96° |
| 2026-04-26 08:57 | 47.45520 | 8.55825 | 1416 ft | 12 kts | 46° |
| 2026-04-26 08:57 | 47.45594 | 8.55848 | 1409 ft | 14 kts | 11° |
| 2026-04-26 08:57 | 47.45628 | 8.56000 | 1410 ft | 21 kts | 95° |
| 2026-04-26 08:58 | 47.45612 | 8.56221 | 1412 ft | 21 kts | 97° |
| 2026-04-26 08:58 | 47.45599 | 8.56424 | 1414 ft | 19 kts | 96° |
| 2026-04-26 08:58 | 47.45586 | 8.56601 | 1417 ft | 16 kts | 96° |
| 2026-04-26 08:58 | 47.45576 | 8.56747 | 1423 ft | 13 kts | 96° |
| 2026-04-26 08:59 | 47.45566 | 8.56883 | 1420 ft | 13 kts | 96° |
| 2026-04-26 08:59 | 47.45585 | 8.57002 | 1422 ft | 10 kts | 36° |
| 2026-04-26 08:59 | 47.45634 | 8.57024 | 1425 ft | 6 kts | 8° |
| 2026-04-26 08:59 | 47.45662 | 8.56992 | 1424 ft | 7 kts | 297° |
| 2026-04-26 09:00 | 47.45668 | 8.56930 | 1424 ft | 0 kts | 276° |
| 2026-04-26 09:01 | 47.45671 | 8.56887 | 1423 ft | 20 kts | 276° |
| 2026-04-26 09:01 | 47.45717 | 8.56274 | 1420 ft | 96 kts | 276° |
| 2026-04-26 09:01 | 47.45807 | 8.54987 | 1397 ft | 154 kts | 276° |
| 2026-04-26 09:01 | 47.45927 | 8.53307 | 1815 ft | 162 kts | 278° |
| 2026-04-26 09:02 | 47.46044 | 8.51687 | 2608 ft | 158 kts | 278° |
| 2026-04-26 09:02 | 47.46148 | 8.50021 | 3165 ft | 167 kts | 278° |
| 2026-04-26 09:02 | 47.46229 | 8.48270 | 3616 ft | 176 kts | 264° |
| 2026-04-26 09:02 | 47.45754 | 8.46656 | 4079 ft | 173 kts | 224° |
| 2026-04-26 09:03 | 47.44826 | 8.45543 | 4576 ft | 173 kts | 215° |
| 2026-04-26 09:03 | 47.43971 | 8.44182 | 4863 ft | 192 kts | 237° |
| 2026-04-26 09:03 | 47.43444 | 8.42291 | 5025 ft | 211 kts | 255° |
| 2026-04-26 09:03 | 47.43048 | 8.40087 | 5167 ft | 230 kts | 255° |
| 2026-04-26 09:04 | 47.42467 | 8.37840 | 5485 ft | 238 kts | 233° |
| 2026-04-26 09:04 | 47.41201 | 8.36332 | 6034 ft | 235 kts | 200° |
| 2026-04-26 09:04 | 47.39610 | 8.36048 | 6625 ft | 232 kts | 168° |
| 2026-04-26 09:04 | 47.38171 | 8.37040 | 7125 ft | 231 kts | 137° |
| 2026-04-26 09:05 | 47.37311 | 8.39011 | 7586 ft | 232 kts | 104° |
| 2026-04-26 09:05 | 47.37286 | 8.41363 | 8069 ft | 233 kts | 73° |
| 2026-04-26 09:05 | 47.38102 | 8.43405 | 8554 ft | 235 kts | 41° |
| 2026-04-26 09:05 | 47.39519 | 8.44594 | 9058 ft | 236 kts | 21° |
| 2026-04-26 09:06 | 47.41000 | 8.45656 | 9601 ft | 238 kts | 35° |
| 2026-04-26 09:06 | 47.42194 | 8.47378 | 9959 ft | 249 kts | 52° |
| 2026-04-26 09:06 | 47.43257 | 8.49496 | 10084 ft | 271 kts | 53° |
| 2026-04-26 09:06 | 47.44401 | 8.51820 | 10401 ft | 286 kts | 53° |
| 2026-04-26 09:07 | 47.45425 | 8.54450 | 10557 ft | 308 kts | 69° |
| 2026-04-26 09:07 | 47.45863 | 8.57653 | 10689 ft | 331 kts | 85° |
| 2026-04-26 09:07 | 47.45974 | 8.61158 | 10812 ft | 351 kts | 86° |
| 2026-04-26 09:07 | 47.46092 | 8.64839 | 11121 ft | 363 kts | 86° |
| 2026-04-26 09:08 | 47.46216 | 8.68591 | 11656 ft | 368 kts | 86° |
| 2026-04-26 09:08 | 47.46349 | 8.72394 | 12219 ft | 373 kts | 86° |
| 2026-04-26 09:08 | 47.46487 | 8.76195 | 12780 ft | 377 kts | 85° |
| 2026-04-26 09:08 | 47.46632 | 8.80079 | 13384 ft | 381 kts | 86° |
| 2026-04-26 09:09 | 47.46480 | 8.83971 | 13906 ft | 387 kts | 100° |
| 2026-04-26 09:09 | 47.45918 | 8.87872 | 14435 ft | 390 kts | 102° |
| 2026-04-26 09:09 | 47.45337 | 8.91792 | 14975 ft | 393 kts | 101° |
| 2026-04-26 09:09 | 47.44759 | 8.95756 | 15474 ft | 396 kts | 101° |
| 2026-04-26 09:10 | 47.44187 | 8.99748 | 15969 ft | 399 kts | 101° |
| 2026-04-26 09:10 | 47.43617 | 9.03769 | 16490 ft | 401 kts | 101° |
| 2026-04-26 09:10 | 47.43042 | 9.07820 | 16969 ft | 405 kts | 101° |